sensor_id;sensor_type;location;lat;lon;timestamp;temperature;humidity
14257;DHT22;7212;53.254;6.456;2022-10-17T00:01:08;13.70;99.90
14257;DHT22;7212;53.254;6.456;2022-10-17T00:03:35;13.70;99.90
14257;DHT22;7212;53.254;6.456;2022-10-17T00:06:05;13.70;99.90
14257;DHT22;7212;53.254;6.456;2022-10-17T00:08:31;13.70;99.90
14257;DHT22;7212;53.254;6.456;2022-10-17T00:11:03;13.70;99.90
14257;DHT22;7212;53.254;6.456;2022-10-17T00:13:29;13.70;99.90
14257;DHT22;7212;53.254;6.456;2022-10-17T00:15:55;13.60;99.90
14257;DHT22;7212;53.254;6.456;2022-10-17T00:18:21;13.60;99.90
14257;DHT22;7212;53.254;6.456;2022-10-17T00:20:46;13.60;99.90
14257;DHT22;7212;53.254;6.456;2022-10-17T00:23:12;13.60;99.90
14257;DHT22;7212;53.254;6.456;2022-10-17T00:25:37;13.60;99.90
14257;DHT22;7212;53.254;6.456;2022-10-17T00:28:05;13.60;99.90
14257;DHT22;7212;53.254;6.456;2022-10-17T00:30:31;13.60;99.90
14257;DHT22;7212;53.254;6.456;2022-10-17T00:32:57;13.60;99.90
14257;DHT22;7212;53.254;6.456;2022-10-17T00:35:22;13.60;99.90
14257;DHT22;7212;53.254;6.456;2022-10-17T00:37:48;13.60;99.90
14257;DHT22;7212;53.254;6.456;2022-10-17T00:40:14;13.50;99.90
14257;DHT22;7212;53.254;6.456;2022-10-17T00:42:39;13.50;99.90
14257;DHT22;7212;53.254;6.456;2022-10-17T00:45:26;13.50;99.90
14257;DHT22;7212;53.254;6.456;2022-10-17T00:47:57;13.50;99.90
14257;DHT22;7212;53.254;6.456;2022-10-17T00:50:24;13.50;99.90
14257;DHT22;7212;53.254;6.456;2022-10-17T00:52:51;13.50;99.90
14257;DHT22;7212;53.254;6.456;2022-10-17T00:55:23;13.50;99.90
14257;DHT22;7212;53.254;6.456;2022-10-17T00:57:50;13.50;99.90
14257;DHT22;7212;53.254;6.456;2022-10-17T01:00:18;13.50;99.90
14257;DHT22;7212;53.254;6.456;2022-10-17T01:02:44;13.50;99.90
14257;DHT22;7212;53.254;6.456;2022-10-17T01:05:10;13.50;99.90
14257;DHT22;7212;53.254;6.456;2022-10-17T01:07:37;13.50;99.90
14257;DHT22;7212;53.254;6.456;2022-10-17T01:10:05;13.40;99.90
14257;DHT22;7212;53.254;6.456;2022-10-17T01:12:56;13.50;99.90
14257;DHT22;7212;53.254;6.456;2022-10-17T01:15:39;13.50;99.90
14257;DHT22;7212;53.254;6.456;2022-10-17T01:18:21;13.40;99.90
14257;DHT22;7212;53.254;6.456;2022-10-17T01:32:22;13.50;99.90
14257;DHT22;7212;53.254;6.456;2022-10-17T01:34:58;13.50;99.90
14257;DHT22;7212;53.254;6.456;2022-10-17T01:42:27;13.50;99.90
14257;DHT22;7212;53.254;6.456;2022-10-17T01:45:02;13.50;99.90
14257;DHT22;7212;53.254;6.456;2022-10-17T01:47:33;13.50;99.90
14257;DHT22;7212;53.254;6.456;2022-10-17T01:50:06;13.50;99.90
14257;DHT22;7212;53.254;6.456;2022-10-17T01:52:41;13.50;99.90
14257;DHT22;7212;53.254;6.456;2022-10-17T01:55:17;13.50;99.90
14257;DHT22;7212;53.254;6.456;2022-10-17T01:57:55;13.50;99.90
14257;DHT22;7212;53.254;6.456;2022-10-17T02:00:24;13.50;99.90
14257;DHT22;7212;53.254;6.456;2022-10-17T02:02:57;13.60;99.90
14257;DHT22;7212;53.254;6.456;2022-10-17T02:05:28;13.50;99.90
14257;DHT22;7212;53.254;6.456;2022-10-17T02:07:55;13.60;99.90
14257;DHT22;7212;53.254;6.456;2022-10-17T02:10:54;13.60;99.90
14257;DHT22;7212;53.254;6.456;2022-10-17T02:13:40;13.60;99.90
14257;DHT22;7212;53.254;6.456;2022-10-17T02:22:15;13.60;99.90
14257;DHT22;7212;53.254;6.456;2022-10-17T02:24:58;13.60;99.90
14257;DHT22;7212;53.254;6.456;2022-10-17T02:27:41;13.60;99.90
14257;DHT22;7212;53.254;6.456;2022-10-17T02:30:33;13.60;99.90
14257;DHT22;7212;53.254;6.456;2022-10-17T02:33:06;13.60;99.90
14257;DHT22;7212;53.254;6.456;2022-10-17T02:35:36;13.60;99.90
14257;DHT22;7212;53.254;6.456;2022-10-17T02:38:04;13.60;99.90
14257;DHT22;7212;53.254;6.456;2022-10-17T02:40:31;13.60;99.90
14257;DHT22;7212;53.254;6.456;2022-10-17T02:42:58;13.60;99.90
14257;DHT22;7212;53.254;6.456;2022-10-17T02:45:27;13.60;99.90
14257;DHT22;7212;53.254;6.456;2022-10-17T02:48:01;13.60;99.90
14257;DHT22;7212;53.254;6.456;2022-10-17T02:50:38;13.60;99.90
14257;DHT22;7212;53.254;6.456;2022-10-17T02:53:13;13.60;99.90
14257;DHT22;7212;53.254;6.456;2022-10-17T02:55:45;13.60;99.90
14257;DHT22;7212;53.254;6.456;2022-10-17T02:58:17;13.70;99.90
14257;DHT22;7212;53.254;6.456;2022-10-17T03:00:44;13.60;99.90
14257;DHT22;7212;53.254;6.456;2022-10-17T03:03:22;13.70;99.90
14257;DHT22;7212;53.254;6.456;2022-10-17T03:05:48;13.70;99.90
14257;DHT22;7212;53.254;6.456;2022-10-17T03:08:14;13.60;99.90
14257;DHT22;7212;53.254;6.456;2022-10-17T03:10:40;13.70;99.90
14257;DHT22;7212;53.254;6.456;2022-10-17T03:13:05;13.70;99.90
14257;DHT22;7212;53.254;6.456;2022-10-17T03:15:31;13.60;99.90
14257;DHT22;7212;53.254;6.456;2022-10-17T03:17:56;13.70;99.90
14257;DHT22;7212;53.254;6.456;2022-10-17T03:20:22;13.70;99.90
14257;DHT22;7212;53.254;6.456;2022-10-17T03:22:47;13.60;99.90
14257;DHT22;7212;53.254;6.456;2022-10-17T03:25:13;13.70;99.90
14257;DHT22;7212;53.254;6.456;2022-10-17T03:27:39;13.60;99.90
14257;DHT22;7212;53.254;6.456;2022-10-17T03:30:05;13.60;99.90
14257;DHT22;7212;53.254;6.456;2022-10-17T03:32:32;13.60;99.90
14257;DHT22;7212;53.254;6.456;2022-10-17T03:34:58;13.60;99.90
14257;DHT22;7212;53.254;6.456;2022-10-17T03:37:24;13.70;99.90
14257;DHT22;7212;53.254;6.456;2022-10-17T03:39:49;13.70;99.90
14257;DHT22;7212;53.254;6.456;2022-10-17T03:42:15;13.60;99.90
14257;DHT22;7212;53.254;6.456;2022-10-17T03:44:40;13.60;99.90
14257;DHT22;7212;53.254;6.456;2022-10-17T03:47:06;13.60;99.90
14257;DHT22;7212;53.254;6.456;2022-10-17T03:49:31;13.70;99.90
14257;DHT22;7212;53.254;6.456;2022-10-17T03:51:57;13.70;99.90
14257;DHT22;7212;53.254;6.456;2022-10-17T03:54:23;13.70;99.90
14257;DHT22;7212;53.254;6.456;2022-10-17T03:56:48;13.70;99.90
14257;DHT22;7212;53.254;6.456;2022-10-17T03:59:14;13.70;99.90
14257;DHT22;7212;53.254;6.456;2022-10-17T04:01:41;13.70;99.90
14257;DHT22;7212;53.254;6.456;2022-10-17T04:04:07;13.70;99.90
14257;DHT22;7212;53.254;6.456;2022-10-17T04:06:33;13.70;99.90
14257;DHT22;7212;53.254;6.456;2022-10-17T04:08:59;13.70;99.90
14257;DHT22;7212;53.254;6.456;2022-10-17T04:11:24;13.70;99.90
14257;DHT22;7212;53.254;6.456;2022-10-17T04:13:54;13.70;99.90
14257;DHT22;7212;53.254;6.456;2022-10-17T04:16:21;13.70;99.90
14257;DHT22;7212;53.254;6.456;2022-10-17T04:18:50;13.70;99.90
14257;DHT22;7212;53.254;6.456;2022-10-17T04:21:16;13.70;99.90
14257;DHT22;7212;53.254;6.456;2022-10-17T04:23:43;13.70;99.90
14257;DHT22;7212;53.254;6.456;2022-10-17T04:26:08;13.70;99.90
14257;DHT22;7212;53.254;6.456;2022-10-17T04:28:34;13.70;99.90
14257;DHT22;7212;53.254;6.456;2022-10-17T04:31:03;13.70;99.90
14257;DHT22;7212;53.254;6.456;2022-10-17T04:33:29;13.70;99.90
14257;DHT22;7212;53.254;6.456;2022-10-17T04:36:03;13.70;99.90
14257;DHT22;7212;53.254;6.456;2022-10-17T04:38:29;13.70;99.90
14257;DHT22;7212;53.254;6.456;2022-10-17T04:40:59;13.70;99.90
14257;DHT22;7212;53.254;6.456;2022-10-17T04:43:28;13.70;99.90
14257;DHT22;7212;53.254;6.456;2022-10-17T04:45:53;13.70;99.90
14257;DHT22;7212;53.254;6.456;2022-10-17T04:48:21;13.70;99.90
14257;DHT22;7212;53.254;6.456;2022-10-17T04:50:58;13.70;99.90
14257;DHT22;7212;53.254;6.456;2022-10-17T04:53:24;13.70;99.90
14257;DHT22;7212;53.254;6.456;2022-10-17T04:55:50;13.70;99.90
14257;DHT22;7212;53.254;6.456;2022-10-17T04:58:16;13.70;99.90
14257;DHT22;7212;53.254;6.456;2022-10-17T05:00:42;13.70;99.90
14257;DHT22;7212;53.254;6.456;2022-10-17T05:03:07;13.70;99.90
14257;DHT22;7212;53.254;6.456;2022-10-17T05:05:36;13.70;99.90
14257;DHT22;7212;53.254;6.456;2022-10-17T05:08:03;13.70;99.90
14257;DHT22;7212;53.254;6.456;2022-10-17T05:10:29;13.70;99.90
14257;DHT22;7212;53.254;6.456;2022-10-17T05:12:54;13.70;99.90
14257;DHT22;7212;53.254;6.456;2022-10-17T05:15:20;13.70;99.90
14257;DHT22;7212;53.254;6.456;2022-10-17T05:17:45;13.70;99.90
14257;DHT22;7212;53.254;6.456;2022-10-17T05:20:11;13.70;99.90
14257;DHT22;7212;53.254;6.456;2022-10-17T05:22:37;13.70;99.90
14257;DHT22;7212;53.254;6.456;2022-10-17T05:25:03;13.80;99.90
14257;DHT22;7212;53.254;6.456;2022-10-17T05:27:28;13.80;99.90
14257;DHT22;7212;53.254;6.456;2022-10-17T05:29:54;13.80;99.90
14257;DHT22;7212;53.254;6.456;2022-10-17T05:32:19;13.70;99.90
14257;DHT22;7212;53.254;6.456;2022-10-17T05:34:45;13.70;99.90
14257;DHT22;7212;53.254;6.456;2022-10-17T05:37:10;13.70;99.90
14257;DHT22;7212;53.254;6.456;2022-10-17T05:39:36;13.80;99.90
14257;DHT22;7212;53.254;6.456;2022-10-17T05:42:02;13.70;99.90
14257;DHT22;7212;53.254;6.456;2022-10-17T05:44:27;13.70;99.90
14257;DHT22;7212;53.254;6.456;2022-10-17T05:46:53;13.80;99.90
14257;DHT22;7212;53.254;6.456;2022-10-17T05:49:18;13.80;99.90
14257;DHT22;7212;53.254;6.456;2022-10-17T05:51:44;13.80;99.90
14257;DHT22;7212;53.254;6.456;2022-10-17T05:54:10;13.80;99.90
14257;DHT22;7212;53.254;6.456;2022-10-17T05:56:35;13.80;99.90
14257;DHT22;7212;53.254;6.456;2022-10-17T05:59:01;13.80;99.90
14257;DHT22;7212;53.254;6.456;2022-10-17T06:01:27;13.80;99.90
14257;DHT22;7212;53.254;6.456;2022-10-17T06:03:52;13.80;99.90
14257;DHT22;7212;53.254;6.456;2022-10-17T06:06:18;13.80;99.90
14257;DHT22;7212;53.254;6.456;2022-10-17T06:08:44;13.80;99.90
14257;DHT22;7212;53.254;6.456;2022-10-17T06:11:11;13.80;99.90
14257;DHT22;7212;53.254;6.456;2022-10-17T06:13:38;13.80;99.90
14257;DHT22;7212;53.254;6.456;2022-10-17T06:16:04;13.80;99.90
14257;DHT22;7212;53.254;6.456;2022-10-17T06:18:29;13.80;99.90
14257;DHT22;7212;53.254;6.456;2022-10-17T06:21:02;13.80;99.90
14257;DHT22;7212;53.254;6.456;2022-10-17T06:23:28;13.90;99.90
14257;DHT22;7212;53.254;6.456;2022-10-17T06:26:00;13.90;99.90
14257;DHT22;7212;53.254;6.456;2022-10-17T06:28:26;13.80;99.90
14257;DHT22;7212;53.254;6.456;2022-10-17T06:30:51;13.90;99.90
14257;DHT22;7212;53.254;6.456;2022-10-17T06:33:17;13.80;99.90
14257;DHT22;7212;53.254;6.456;2022-10-17T06:35:43;13.90;99.90
14257;DHT22;7212;53.254;6.456;2022-10-17T06:38:08;13.90;99.90
14257;DHT22;7212;53.254;6.456;2022-10-17T06:40:34;13.90;99.90
14257;DHT22;7212;53.254;6.456;2022-10-17T06:43:00;13.90;99.90
14257;DHT22;7212;53.254;6.456;2022-10-17T06:45:25;13.90;99.90
14257;DHT22;7212;53.254;6.456;2022-10-17T06:47:51;13.90;99.90
14257;DHT22;7212;53.254;6.456;2022-10-17T06:50:17;13.90;99.90
14257;DHT22;7212;53.254;6.456;2022-10-17T06:52:42;13.90;99.90
14257;DHT22;7212;53.254;6.456;2022-10-17T06:55:08;13.90;99.90
14257;DHT22;7212;53.254;6.456;2022-10-17T06:57:34;14.00;99.90
14257;DHT22;7212;53.254;6.456;2022-10-17T07:00:00;14.00;99.90
14257;DHT22;7212;53.254;6.456;2022-10-17T07:02:25;14.00;99.90
14257;DHT22;7212;53.254;6.456;2022-10-17T07:04:51;14.00;99.90
14257;DHT22;7212;53.254;6.456;2022-10-17T07:07:17;14.00;99.90
14257;DHT22;7212;53.254;6.456;2022-10-17T07:09:42;14.00;99.90
14257;DHT22;7212;53.254;6.456;2022-10-17T07:12:08;14.00;99.90
14257;DHT22;7212;53.254;6.456;2022-10-17T07:14:36;14.00;99.90
14257;DHT22;7212;53.254;6.456;2022-10-17T07:17:02;14.00;99.90
14257;DHT22;7212;53.254;6.456;2022-10-17T07:19:28;14.10;99.90
14257;DHT22;7212;53.254;6.456;2022-10-17T07:21:56;14.10;99.90
14257;DHT22;7212;53.254;6.456;2022-10-17T07:24:21;14.10;99.90
14257;DHT22;7212;53.254;6.456;2022-10-17T07:26:47;14.10;99.90
14257;DHT22;7212;53.254;6.456;2022-10-17T07:29:13;14.10;99.90
14257;DHT22;7212;53.254;6.456;2022-10-17T07:31:39;14.20;99.90
14257;DHT22;7212;53.254;6.456;2022-10-17T07:34:04;14.20;99.90
14257;DHT22;7212;53.254;6.456;2022-10-17T07:36:30;14.20;99.90
14257;DHT22;7212;53.254;6.456;2022-10-17T07:38:56;14.20;99.90
14257;DHT22;7212;53.254;6.456;2022-10-17T07:41:21;14.20;99.90
14257;DHT22;7212;53.254;6.456;2022-10-17T07:43:49;14.30;99.90
14257;DHT22;7212;53.254;6.456;2022-10-17T07:46:15;14.30;99.90
14257;DHT22;7212;53.254;6.456;2022-10-17T07:48:41;14.30;99.90
14257;DHT22;7212;53.254;6.456;2022-10-17T07:51:08;14.40;99.90
14257;DHT22;7212;53.254;6.456;2022-10-17T07:53:37;14.40;99.90
14257;DHT22;7212;53.254;6.456;2022-10-17T07:56:05;14.40;99.90
14257;DHT22;7212;53.254;6.456;2022-10-17T07:58:31;14.40;99.90
14257;DHT22;7212;53.254;6.456;2022-10-17T08:01:03;14.40;99.90
14257;DHT22;7212;53.254;6.456;2022-10-17T08:03:29;14.50;99.90
14257;DHT22;7212;53.254;6.456;2022-10-17T08:05:59;14.50;99.90
14257;DHT22;7212;53.254;6.456;2022-10-17T08:08:26;14.60;99.90
14257;DHT22;7212;53.254;6.456;2022-10-17T08:10:53;14.60;99.90
14257;DHT22;7212;53.254;6.456;2022-10-17T08:13:20;14.60;99.90
14257;DHT22;7212;53.254;6.456;2022-10-17T08:15:46;14.70;99.90
14257;DHT22;7212;53.254;6.456;2022-10-17T08:18:13;14.70;99.90
14257;DHT22;7212;53.254;6.456;2022-10-17T08:20:39;14.70;99.90
14257;DHT22;7212;53.254;6.456;2022-10-17T08:23:05;14.80;99.90
14257;DHT22;7212;53.254;6.456;2022-10-17T08:25:31;14.80;99.90
14257;DHT22;7212;53.254;6.456;2022-10-17T08:27:58;14.80;99.90
14257;DHT22;7212;53.254;6.456;2022-10-17T08:30:24;14.90;99.90
14257;DHT22;7212;53.254;6.456;2022-10-17T08:32:50;14.90;99.90
14257;DHT22;7212;53.254;6.456;2022-10-17T08:35:15;14.90;99.90
14257;DHT22;7212;53.254;6.456;2022-10-17T08:37:41;14.90;99.90
14257;DHT22;7212;53.254;6.456;2022-10-17T08:40:13;15.00;99.90
14257;DHT22;7212;53.254;6.456;2022-10-17T08:43:03;15.00;99.90
14257;DHT22;7212;53.254;6.456;2022-10-17T08:48:42;15.10;99.90
14257;DHT22;7212;53.254;6.456;2022-10-17T08:51:22;15.10;99.90
14257;DHT22;7212;53.254;6.456;2022-10-17T08:53:55;15.20;99.90
14257;DHT22;7212;53.254;6.456;2022-10-17T08:56:25;15.20;99.90
14257;DHT22;7212;53.254;6.456;2022-10-17T08:58:52;15.20;99.90
14257;DHT22;7212;53.254;6.456;2022-10-17T09:01:39;15.20;99.90
14257;DHT22;7212;53.254;6.456;2022-10-17T09:06:58;15.30;99.90
14257;DHT22;7212;53.254;6.456;2022-10-17T09:17:58;15.60;99.90
14257;DHT22;7212;53.254;6.456;2022-10-17T09:20:31;15.70;99.90
14257;DHT22;7212;53.254;6.456;2022-10-17T09:23:02;15.70;99.90
14257;DHT22;7212;53.254;6.456;2022-10-17T09:25:33;15.70;99.90
14257;DHT22;7212;53.254;6.456;2022-10-17T09:30:43;15.90;99.90
14257;DHT22;7212;53.254;6.456;2022-10-17T09:35:43;15.90;99.90
14257;DHT22;7212;53.254;6.456;2022-10-17T09:38:20;15.90;99.90
14257;DHT22;7212;53.254;6.456;2022-10-17T09:40:53;16.00;99.90
14257;DHT22;7212;53.254;6.456;2022-10-17T09:43:20;16.00;99.90
14257;DHT22;7212;53.254;6.456;2022-10-17T09:46:07;16.00;99.90
14257;DHT22;7212;53.254;6.456;2022-10-17T09:48:41;16.10;99.90
14257;DHT22;7212;53.254;6.456;2022-10-17T09:51:09;16.10;99.90
14257;DHT22;7212;53.254;6.456;2022-10-17T09:53:38;16.10;99.90
14257;DHT22;7212;53.254;6.456;2022-10-17T09:56:09;16.10;99.90
14257;DHT22;7212;53.254;6.456;2022-10-17T09:58:45;16.10;99.90
14257;DHT22;7212;53.254;6.456;2022-10-17T10:01:26;16.10;99.90
14257;DHT22;7212;53.254;6.456;2022-10-17T10:04:25;16.10;99.90
14257;DHT22;7212;53.254;6.456;2022-10-17T10:07:05;16.10;99.90
14257;DHT22;7212;53.254;6.456;2022-10-17T10:09:36;16.10;99.90
14257;DHT22;7212;53.254;6.456;2022-10-17T10:12:13;16.00;99.90
14257;DHT22;7212;53.254;6.456;2022-10-17T10:14:40;16.00;99.90
14257;DHT22;7212;53.254;6.456;2022-10-17T10:17:28;16.10;99.90
14257;DHT22;7212;53.254;6.456;2022-10-17T10:19:58;16.10;99.90
14257;DHT22;7212;53.254;6.456;2022-10-17T10:22:23;16.10;99.90
14257;DHT22;7212;53.254;6.456;2022-10-17T10:25:15;16.10;99.90
14257;DHT22;7212;53.254;6.456;2022-10-17T10:27:43;16.10;99.90
14257;DHT22;7212;53.254;6.456;2022-10-17T10:30:26;16.10;99.90
14257;DHT22;7212;53.254;6.456;2022-10-17T10:32:53;16.10;99.90
14257;DHT22;7212;53.254;6.456;2022-10-17T10:35:21;16.10;99.90
14257;DHT22;7212;53.254;6.456;2022-10-17T10:37:54;16.10;99.90
14257;DHT22;7212;53.254;6.456;2022-10-17T10:40:28;16.10;99.90
14257;DHT22;7212;53.254;6.456;2022-10-17T10:42:57;16.10;99.90
14257;DHT22;7212;53.254;6.456;2022-10-17T10:45:28;16.10;99.90
14257;DHT22;7212;53.254;6.456;2022-10-17T10:48:20;16.20;99.90
14257;DHT22;7212;53.254;6.456;2022-10-17T10:56:23;16.20;99.90
14257;DHT22;7212;53.254;6.456;2022-10-17T11:04:26;16.20;99.90
14257;DHT22;7212;53.254;6.456;2022-10-17T11:07:17;16.20;99.90
14257;DHT22;7212;53.254;6.456;2022-10-17T11:10:16;16.20;99.90
14257;DHT22;7212;53.254;6.456;2022-10-17T11:12:51;16.30;99.90
14257;DHT22;7212;53.254;6.456;2022-10-17T11:15:35;16.30;99.90
14257;DHT22;7212;53.254;6.456;2022-10-17T11:18:10;16.30;99.90
14257;DHT22;7212;53.254;6.456;2022-10-17T11:23:18;16.30;99.90
14257;DHT22;7212;53.254;6.456;2022-10-17T11:25:48;16.30;99.90
14257;DHT22;7212;53.254;6.456;2022-10-17T11:28:19;16.30;99.90
14257;DHT22;7212;53.254;6.456;2022-10-17T11:31:12;16.30;99.90
14257;DHT22;7212;53.254;6.456;2022-10-17T11:33:46;16.30;99.90
14257;DHT22;7212;53.254;6.456;2022-10-17T11:57:55;16.40;99.90
14257;DHT22;7212;53.254;6.456;2022-10-17T12:09:01;16.50;99.90
14257;DHT22;7212;53.254;6.456;2022-10-17T12:14:34;16.50;99.90
14257;DHT22;7212;53.254;6.456;2022-10-17T12:17:01;16.60;99.90
14257;DHT22;7212;53.254;6.456;2022-10-17T12:19:28;16.50;99.90
14257;DHT22;7212;53.254;6.456;2022-10-17T12:22:04;16.50;99.90
14257;DHT22;7212;53.254;6.456;2022-10-17T12:27:20;16.60;99.90
14257;DHT22;7212;53.254;6.456;2022-10-17T12:29:46;16.60;99.90
14257;DHT22;7212;53.254;6.456;2022-10-17T12:32:12;16.60;99.90
14257;DHT22;7212;53.254;6.456;2022-10-17T12:43:47;16.70;99.90
14257;DHT22;7212;53.254;6.456;2022-10-17T12:51:09;16.70;99.90
14257;DHT22;7212;53.254;6.456;2022-10-17T12:56:41;16.70;99.90
14257;DHT22;7212;53.254;6.456;2022-10-17T12:59:28;16.70;99.90
14257;DHT22;7212;53.254;6.456;2022-10-17T13:01:57;16.70;99.90
14257;DHT22;7212;53.254;6.456;2022-10-17T13:04:24;16.70;99.90
14257;DHT22;7212;53.254;6.456;2022-10-17T13:06:53;16.70;99.90
14257;DHT22;7212;53.254;6.456;2022-10-17T13:11:52;16.70;99.90
14257;DHT22;7212;53.254;6.456;2022-10-17T13:14:20;16.70;99.90
14257;DHT22;7212;53.254;6.456;2022-10-17T13:17:02;16.70;99.90
14257;DHT22;7212;53.254;6.456;2022-10-17T13:19:31;16.60;99.90
14257;DHT22;7212;53.254;6.456;2022-10-17T13:22:14;16.60;99.90
14257;DHT22;7212;53.254;6.456;2022-10-17T13:24:40;16.60;99.90
14257;DHT22;7212;53.254;6.456;2022-10-17T13:27:27;16.60;99.90
14257;DHT22;7212;53.254;6.456;2022-10-17T13:29:55;16.60;99.90
14257;DHT22;7212;53.254;6.456;2022-10-17T13:32:22;16.60;99.90
14257;DHT22;7212;53.254;6.456;2022-10-17T13:35:11;16.60;99.90
14257;DHT22;7212;53.254;6.456;2022-10-17T13:37:39;16.60;99.90
14257;DHT22;7212;53.254;6.456;2022-10-17T13:40:14;16.50;99.90
14257;DHT22;7212;53.254;6.456;2022-10-17T13:42:40;16.50;99.90
14257;DHT22;7212;53.254;6.456;2022-10-17T13:45:17;16.50;99.90
14257;DHT22;7212;53.254;6.456;2022-10-17T13:47:44;16.50;99.90
14257;DHT22;7212;53.254;6.456;2022-10-17T13:50:36;16.50;99.90
14257;DHT22;7212;53.254;6.456;2022-10-17T13:58:24;16.50;99.90
14257;DHT22;7212;53.254;6.456;2022-10-17T14:00:50;16.50;99.90
14257;DHT22;7212;53.254;6.456;2022-10-17T14:03:19;16.50;99.90
14257;DHT22;7212;53.254;6.456;2022-10-17T14:08:30;16.50;99.90
14257;DHT22;7212;53.254;6.456;2022-10-17T14:10:57;16.40;99.90
14257;DHT22;7212;53.254;6.456;2022-10-17T14:13:25;16.40;99.90
14257;DHT22;7212;53.254;6.456;2022-10-17T14:15:53;16.40;99.90
14257;DHT22;7212;53.254;6.456;2022-10-17T14:18:34;16.40;99.90
14257;DHT22;7212;53.254;6.456;2022-10-17T14:21:00;16.40;99.90
14257;DHT22;7212;53.254;6.456;2022-10-17T14:23:41;16.40;99.90
14257;DHT22;7212;53.254;6.456;2022-10-17T14:28:39;16.40;99.90
14257;DHT22;7212;53.254;6.456;2022-10-17T14:31:28;16.40;99.90
14257;DHT22;7212;53.254;6.456;2022-10-17T14:33:54;16.40;99.90
14257;DHT22;7212;53.254;6.456;2022-10-17T14:36:38;16.40;99.90
14257;DHT22;7212;53.254;6.456;2022-10-17T14:39:14;16.40;99.90
14257;DHT22;7212;53.254;6.456;2022-10-17T14:41:43;16.40;99.90
14257;DHT22;7212;53.254;6.456;2022-10-17T14:44:22;16.40;99.90
14257;DHT22;7212;53.254;6.456;2022-10-17T14:47:14;16.40;99.90
14257;DHT22;7212;53.254;6.456;2022-10-17T14:49:40;16.40;99.90
14257;DHT22;7212;53.254;6.456;2022-10-17T14:54:43;16.40;99.90
14257;DHT22;7212;53.254;6.456;2022-10-17T14:59:41;16.40;99.90
14257;DHT22;7212;53.254;6.456;2022-10-17T15:02:08;16.40;99.90
14257;DHT22;7212;53.254;6.456;2022-10-17T15:04:34;16.40;99.90
14257;DHT22;7212;53.254;6.456;2022-10-17T15:06:59;16.40;99.90
14257;DHT22;7212;53.254;6.456;2022-10-17T15:09:25;16.40;99.90
14257;DHT22;7212;53.254;6.456;2022-10-17T15:12:03;16.40;99.90
14257;DHT22;7212;53.254;6.456;2022-10-17T15:14:29;16.40;99.90
14257;DHT22;7212;53.254;6.456;2022-10-17T15:16:55;16.40;99.90
14257;DHT22;7212;53.254;6.456;2022-10-17T15:19:20;16.40;99.90
14257;DHT22;7212;53.254;6.456;2022-10-17T15:21:46;16.40;99.90
14257;DHT22;7212;53.254;6.456;2022-10-17T15:24:11;16.40;99.90
14257;DHT22;7212;53.254;6.456;2022-10-17T15:26:38;16.40;99.90
14257;DHT22;7212;53.254;6.456;2022-10-17T15:29:03;16.40;99.90
14257;DHT22;7212;53.254;6.456;2022-10-17T15:31:29;16.40;99.90
14257;DHT22;7212;53.254;6.456;2022-10-17T15:33:58;16.40;99.90
14257;DHT22;7212;53.254;6.456;2022-10-17T15:36:32;16.40;99.90
14257;DHT22;7212;53.254;6.456;2022-10-17T15:39:00;16.40;99.90
14257;DHT22;7212;53.254;6.456;2022-10-17T15:41:28;16.50;99.90
14257;DHT22;7212;53.254;6.456;2022-10-17T15:43:54;16.40;99.90
14257;DHT22;7212;53.254;6.456;2022-10-17T15:46:25;16.40;99.90
14257;DHT22;7212;53.254;6.456;2022-10-17T15:48:53;16.50;99.90
14257;DHT22;7212;53.254;6.456;2022-10-17T15:51:21;16.40;99.90
14257;DHT22;7212;53.254;6.456;2022-10-17T15:53:47;16.40;99.90
14257;DHT22;7212;53.254;6.456;2022-10-17T15:56:29;16.40;99.90
14257;DHT22;7212;53.254;6.456;2022-10-17T15:58:56;16.40;99.90
14257;DHT22;7212;53.254;6.456;2022-10-17T16:01:29;16.40;99.90
14257;DHT22;7212;53.254;6.456;2022-10-17T16:03:56;16.40;99.90
14257;DHT22;7212;53.254;6.456;2022-10-17T16:06:22;16.40;99.90
14257;DHT22;7212;53.254;6.456;2022-10-17T16:08:48;16.40;99.90
14257;DHT22;7212;53.254;6.456;2022-10-17T16:13:55;16.30;99.90
14257;DHT22;7212;53.254;6.456;2022-10-17T16:16:21;16.30;99.90
14257;DHT22;7212;53.254;6.456;2022-10-17T16:18:47;16.30;99.90
14257;DHT22;7212;53.254;6.456;2022-10-17T16:21:14;16.30;99.90
14257;DHT22;7212;53.254;6.456;2022-10-17T16:23:41;16.30;99.90
14257;DHT22;7212;53.254;6.456;2022-10-17T16:26:07;16.30;99.90
14257;DHT22;7212;53.254;6.456;2022-10-17T16:28:33;16.20;99.90
14257;DHT22;7212;53.254;6.456;2022-10-17T16:30:58;16.20;99.90
14257;DHT22;7212;53.254;6.456;2022-10-17T16:33:24;16.20;99.90
14257;DHT22;7212;53.254;6.456;2022-10-17T16:35:50;16.20;99.90
14257;DHT22;7212;53.254;6.456;2022-10-17T16:38:16;16.10;99.90
14257;DHT22;7212;53.254;6.456;2022-10-17T16:40:42;16.10;99.90
14257;DHT22;7212;53.254;6.456;2022-10-17T16:43:16;16.10;99.90
14257;DHT22;7212;53.254;6.456;2022-10-17T16:45:41;16.00;99.90
14257;DHT22;7212;53.254;6.456;2022-10-17T16:48:08;16.00;99.90
14257;DHT22;7212;53.254;6.456;2022-10-17T16:50:37;16.00;99.90
14257;DHT22;7212;53.254;6.456;2022-10-17T16:53:03;16.00;99.90
14257;DHT22;7212;53.254;6.456;2022-10-17T16:55:29;16.00;99.90
14257;DHT22;7212;53.254;6.456;2022-10-17T16:57:54;16.00;99.90
14257;DHT22;7212;53.254;6.456;2022-10-17T17:00:20;16.00;99.90
14257;DHT22;7212;53.254;6.456;2022-10-17T17:02:52;16.00;99.90
14257;DHT22;7212;53.254;6.456;2022-10-17T17:05:19;16.00;99.90
14257;DHT22;7212;53.254;6.456;2022-10-17T17:07:45;16.00;99.90
14257;DHT22;7212;53.254;6.456;2022-10-17T17:10:12;15.90;99.90
14257;DHT22;7212;53.254;6.456;2022-10-17T17:12:40;15.90;99.90
14257;DHT22;7212;53.254;6.456;2022-10-17T17:15:06;15.90;99.90
14257;DHT22;7212;53.254;6.456;2022-10-17T17:17:32;15.90;99.90
14257;DHT22;7212;53.254;6.456;2022-10-17T17:19:59;15.90;99.90
14257;DHT22;7212;53.254;6.456;2022-10-17T17:22:25;15.90;99.90
14257;DHT22;7212;53.254;6.456;2022-10-17T17:24:50;15.80;99.90
14257;DHT22;7212;53.254;6.456;2022-10-17T17:27:16;15.80;99.90
14257;DHT22;7212;53.254;6.456;2022-10-17T17:29:42;15.80;99.90
14257;DHT22;7212;53.254;6.456;2022-10-17T17:32:07;15.80;99.90
14257;DHT22;7212;53.254;6.456;2022-10-17T17:34:36;15.80;99.90
14257;DHT22;7212;53.254;6.456;2022-10-17T17:37:02;15.80;99.90
14257;DHT22;7212;53.254;6.456;2022-10-17T17:39:28;15.80;99.90
14257;DHT22;7212;53.254;6.456;2022-10-17T17:41:54;15.80;99.90
14257;DHT22;7212;53.254;6.456;2022-10-17T17:44:20;15.80;99.90
14257;DHT22;7212;53.254;6.456;2022-10-17T17:46:45;15.80;99.90
14257;DHT22;7212;53.254;6.456;2022-10-17T17:49:12;15.80;99.90
14257;DHT22;7212;53.254;6.456;2022-10-17T17:51:38;15.80;99.90
14257;DHT22;7212;53.254;6.456;2022-10-17T17:54:06;15.80;99.90
14257;DHT22;7212;53.254;6.456;2022-10-17T17:56:35;15.80;99.90
14257;DHT22;7212;53.254;6.456;2022-10-17T17:59:02;15.70;99.90
14257;DHT22;7212;53.254;6.456;2022-10-17T18:01:30;15.70;99.90
14257;DHT22;7212;53.254;6.456;2022-10-17T18:03:57;15.70;99.90
14257;DHT22;7212;53.254;6.456;2022-10-17T18:06:26;15.70;99.90
14257;DHT22;7212;53.254;6.456;2022-10-17T18:08:55;15.70;99.90